Предлагаем Вашему вниманию английскую версию страницы: AUTOTAF.ME 35107 - aviation weather forecast Kamenka

AUTOTAF 35107 - авиапрогноз Каменка

Сегодня рассвет 02:48 UTC, восход солнца 03:22 UTC,
местный полдень 08:22 UTC, заход солнца 13:22 UTC,
наступление темноты 13:57 UTC.

Краткий прогноз 35107 на 9 часов

AUTOTAF.ME 35107 260800Z 2609/2618 32008G13MPS 9999 BKN023      
  BECMG 2616/2618 BKN010

Детальный прогноз 35107 на 24 часа

AUTOTAF.ME 35107 260800Z 2609/2709 32008G13MPS 9999 BKN023 TX08/2609Z TNM01/2703Z    
  BECMG 2616/2618 BKN010  
  BECMG 2619/2621 01005G10MPS  
  BECMG 2622/2700 SKC

Подробный табличный прогноз

Время (UTC) miniAUTOTAF на 3 ч WX FZLVL
M AGL
ICE TURB Т
(°С)
Тd
(°С)
f(%) QNH
(гПа)
WIND/T
06 34010G15MPS 9999 BKN016 630 MOD SFC/FL20 5 -1 66 1019 ...
09 32008G13MPS 9999 BKN023 720 MOD FL50/FL90 MOD SFC/FL20 8 -0 59 1019 ...
12 31009G14MPS 9999 FEW017 900 FBL FL40/FL70 MOD SFC/FL20 8 1 64 1020 ...
15 34007G12MPS 9999 OVC017 990 MOD FL50/FL60 MOD SFC/FL20 7 2 72 1020 ...
18 35008G14MPS 9999 BKN010 600 FBL FL40/FL50 MOD SFC/FL30 4 1 79 1023 ...
21 01005G10MPS 9999 BKN011 300 MOD SFC/FL20 2 -1 77 1024 ...
27.10.2020
00 36005G10MPS 9999 SKC 140 1 -3 77 1027 ...
03 36005G10MPS 9999 SKC SFC -1 -4 79 1028 ...
06 36005MPS 9999 SKC 140 2 -5 61 1030 ...
09 36007MPS 9999 SKC 420 MOD SFC/FL170 5 -5 46 1030 ...
12 36007MPS 9999 SKC 2700 MOD SFC/FL20 6 -5 47 1031 ...
15 36003MPS 9999 SKC 2850 2 -4 64 1032 ...
18 04003MPS 9999 SKC 2700 1 -4 71 1034 ...
21 VRB02MPS 9999 SCT280 600 0 -4 73 1034 ...
28.10.2020
00 VRB02MPS 9999 SCT270 SFC -1 -5 74 1035 ...
03 VRB02MPS 9999 FEW270 SFC -1 -5 74 1035 ...


Широта 51.1°, долгота 50.3°, высота 73 м абс.
Средняя высота рельефа местности 57 м абс.
Прогнозы обновляются четыре раза в сутки: в 02, 08, 14, 20 ч всемирного времени.


Выбрать прогноз по другой модели Каменка
Онлайн-сводка гроз по Каменка (для РФ и ближнего зарубежья)
Карта фактических гроз в окрестностях Каменка
Динамические прогностические карты (ventusky.com)
Прогностическая карта высоты нижней границы облаков по Каменка (windy.com)
Выбрать другой город

Прогноз предназначен для личного научно-познавательного использования частными лицами
и не предназначен для принятия важных решений и выполнения реальных полётов воздушных судов

При копировании или ином использовании любых материалов данного сайта ссылка на © meteocenter.asia обязательна.

1.11/1.5